sensor_id;sensor_type;location;lat;lon;timestamp;temperature;humidity
10306;DHT22;5198;52.382;9.020;2023-04-09T00:02:35;6.80;99.90
10306;DHT22;5198;52.382;9.020;2023-04-09T00:06:38;6.80;99.90
10306;DHT22;5198;52.382;9.020;2023-04-09T00:10:40;6.70;99.90
10306;DHT22;5198;52.382;9.020;2023-04-09T00:14:45;6.60;99.90
10306;DHT22;5198;52.382;9.020;2023-04-09T00:18:47;6.60;99.90
10306;DHT22;5198;52.382;9.020;2023-04-09T00:22:51;6.50;99.90
10306;DHT22;5198;52.382;9.020;2023-04-09T00:26:54;6.50;99.90
10306;DHT22;5198;52.382;9.020;2023-04-09T00:30:59;6.40;99.90
10306;DHT22;5198;52.382;9.020;2023-04-09T00:39:05;6.20;99.90
10306;DHT22;5198;52.382;9.020;2023-04-09T00:43:07;6.10;99.90
10306;DHT22;5198;52.382;9.020;2023-04-09T00:47:12;6.00;99.90
10306;DHT22;5198;52.382;9.020;2023-04-09T00:51:15;5.80;99.90
10306;DHT22;5198;52.382;9.020;2023-04-09T00:55:18;5.60;99.90
10306;DHT22;5198;52.382;9.020;2023-04-09T00:59:23;5.60;99.90
10306;DHT22;5198;52.382;9.020;2023-04-09T01:03:27;5.40;99.90
10306;DHT22;5198;52.382;9.020;2023-04-09T01:07:34;5.40;99.90
10306;DHT22;5198;52.382;9.020;2023-04-09T01:11:44;5.30;99.90
10306;DHT22;5198;52.382;9.020;2023-04-09T01:15:50;5.20;99.90
10306;DHT22;5198;52.382;9.020;2023-04-09T01:19:57;5.20;99.90
10306;DHT22;5198;52.382;9.020;2023-04-09T01:24:02;5.10;99.90
10306;DHT22;5198;52.382;9.020;2023-04-09T01:28:13;5.00;99.90
10306;DHT22;5198;52.382;9.020;2023-04-09T01:32:17;4.90;99.90
10306;DHT22;5198;52.382;9.020;2023-04-09T01:40:23;4.80;99.90
10306;DHT22;5198;52.382;9.020;2023-04-09T01:44:27;4.70;99.90
10306;DHT22;5198;52.382;9.020;2023-04-09T01:48:30;4.70;99.90
10306;DHT22;5198;52.382;9.020;2023-04-09T01:52:34;4.60;99.90
10306;DHT22;5198;52.382;9.020;2023-04-09T01:56:41;4.60;99.90
10306;DHT22;5198;52.382;9.020;2023-04-09T02:00:46;4.50;99.90
10306;DHT22;5198;52.382;9.020;2023-04-09T02:04:49;4.50;99.90
10306;DHT22;5198;52.382;9.020;2023-04-09T02:08:53;4.30;99.90
10306;DHT22;5198;52.382;9.020;2023-04-09T02:12:57;4.30;99.90
10306;DHT22;5198;52.382;9.020;2023-04-09T02:17:01;4.20;99.90
10306;DHT22;5198;52.382;9.020;2023-04-09T02:21:04;4.20;99.90
10306;DHT22;5198;52.382;9.020;2023-04-09T02:25:07;4.10;99.90
10306;DHT22;5198;52.382;9.020;2023-04-09T02:29:10;4.10;99.90
10306;DHT22;5198;52.382;9.020;2023-04-09T02:33:14;4.00;99.90
10306;DHT22;5198;52.382;9.020;2023-04-09T02:37:17;4.00;99.90
10306;DHT22;5198;52.382;9.020;2023-04-09T02:41:19;4.00;99.90
10306;DHT22;5198;52.382;9.020;2023-04-09T02:45:22;3.90;99.90
10306;DHT22;5198;52.382;9.020;2023-04-09T02:49:26;3.90;99.90
10306;DHT22;5198;52.382;9.020;2023-04-09T02:53:29;3.90;99.90
10306;DHT22;5198;52.382;9.020;2023-04-09T02:57:32;3.90;99.90
10306;DHT22;5198;52.382;9.020;2023-04-09T03:01:35;4.00;99.90
10306;DHT22;5198;52.382;9.020;2023-04-09T03:05:39;4.10;99.90
10306;DHT22;5198;52.382;9.020;2023-04-09T03:09:42;4.20;99.90
10306;DHT22;5198;52.382;9.020;2023-04-09T03:13:45;4.20;99.90
10306;DHT22;5198;52.382;9.020;2023-04-09T03:17:48;4.30;99.90
10306;DHT22;5198;52.382;9.020;2023-04-09T03:21:52;4.40;99.90
10306;DHT22;5198;52.382;9.020;2023-04-09T03:26:01;4.50;99.90
10306;DHT22;5198;52.382;9.020;2023-04-09T03:30:04;4.60;99.90
10306;DHT22;5198;52.382;9.020;2023-04-09T03:34:07;4.70;99.90
10306;DHT22;5198;52.382;9.020;2023-04-09T03:38:11;4.70;99.90
10306;DHT22;5198;52.382;9.020;2023-04-09T03:42:14;4.80;99.90
10306;DHT22;5198;52.382;9.020;2023-04-09T03:46:16;4.90;99.90
10306;DHT22;5198;52.382;9.020;2023-04-09T03:50:19;4.90;99.90
10306;DHT22;5198;52.382;9.020;2023-04-09T03:54:24;5.00;99.90
10306;DHT22;5198;52.382;9.020;2023-04-09T03:58:26;5.00;99.90
10306;DHT22;5198;52.382;9.020;2023-04-09T04:02:29;5.00;99.90
10306;DHT22;5198;52.382;9.020;2023-04-09T04:06:34;5.10;99.90
10306;DHT22;5198;52.382;9.020;2023-04-09T04:10:38;5.10;99.90
10306;DHT22;5198;52.382;9.020;2023-04-09T04:14:41;5.20;99.90
10306;DHT22;5198;52.382;9.020;2023-04-09T04:18:44;5.20;99.90
10306;DHT22;5198;52.382;9.020;2023-04-09T04:22:47;5.30;99.90
10306;DHT22;5198;52.382;9.020;2023-04-09T04:26:51;5.30;99.90
10306;DHT22;5198;52.382;9.020;2023-04-09T04:30:54;5.30;99.90
10306;DHT22;5198;52.382;9.020;2023-04-09T04:34:56;5.30;99.90
10306;DHT22;5198;52.382;9.020;2023-04-09T04:38:59;5.30;99.90
10306;DHT22;5198;52.382;9.020;2023-04-09T04:43:03;5.30;99.90
10306;DHT22;5198;52.382;9.020;2023-04-09T04:47:06;5.30;99.90
10306;DHT22;5198;52.382;9.020;2023-04-09T04:51:09;5.30;99.90
10306;DHT22;5198;52.382;9.020;2023-04-09T04:55:12;5.30;99.90
10306;DHT22;5198;52.382;9.020;2023-04-09T04:59:16;5.30;99.90
10306;DHT22;5198;52.382;9.020;2023-04-09T05:03:19;5.30;99.90
10306;DHT22;5198;52.382;9.020;2023-04-09T05:07:22;5.30;99.90
10306;DHT22;5198;52.382;9.020;2023-04-09T05:11:24;5.30;99.90
10306;DHT22;5198;52.382;9.020;2023-04-09T05:15:29;5.20;99.90
10306;DHT22;5198;52.382;9.020;2023-04-09T05:19:31;5.20;99.90
10306;DHT22;5198;52.382;9.020;2023-04-09T05:23:34;5.20;99.90
10306;DHT22;5198;52.382;9.020;2023-04-09T05:27:37;5.20;99.90
10306;DHT22;5198;52.382;9.020;2023-04-09T05:31:41;5.20;99.90
10306;DHT22;5198;52.382;9.020;2023-04-09T05:35:44;5.20;99.90
10306;DHT22;5198;52.382;9.020;2023-04-09T05:39:47;5.20;99.90
10306;DHT22;5198;52.382;9.020;2023-04-09T05:43:50;5.20;99.90
10306;DHT22;5198;52.382;9.020;2023-04-09T05:47:54;5.30;99.90
10306;DHT22;5198;52.382;9.020;2023-04-09T05:51:57;5.30;99.90
10306;DHT22;5198;52.382;9.020;2023-04-09T05:56:00;5.30;99.90
10306;DHT22;5198;52.382;9.020;2023-04-09T06:00:03;5.30;99.90
10306;DHT22;5198;52.382;9.020;2023-04-09T06:04:07;5.30;99.90
10306;DHT22;5198;52.382;9.020;2023-04-09T06:08:11;5.40;99.90
10306;DHT22;5198;52.382;9.020;2023-04-09T06:12:14;5.40;99.90
10306;DHT22;5198;52.382;9.020;2023-04-09T06:16:17;5.40;99.90
10306;DHT22;5198;52.382;9.020;2023-04-09T06:20:22;5.40;99.90
10306;DHT22;5198;52.382;9.020;2023-04-09T06:24:25;5.40;99.90
10306;DHT22;5198;52.382;9.020;2023-04-09T06:28:28;5.40;99.90
10306;DHT22;5198;52.382;9.020;2023-04-09T06:32:32;5.50;99.90
10306;DHT22;5198;52.382;9.020;2023-04-09T06:36:49;5.50;99.90
10306;DHT22;5198;52.382;9.020;2023-04-09T06:40:51;5.50;99.90
10306;DHT22;5198;52.382;9.020;2023-04-09T06:44:54;5.60;99.90
10306;DHT22;5198;52.382;9.020;2023-04-09T06:48:57;5.60;99.90
10306;DHT22;5198;52.382;9.020;2023-04-09T06:53:01;5.60;99.90
10306;DHT22;5198;52.382;9.020;2023-04-09T06:57:05;5.60;99.90
10306;DHT22;5198;52.382;9.020;2023-04-09T07:01:08;5.70;99.90
10306;DHT22;5198;52.382;9.020;2023-04-09T07:05:10;5.70;99.90
10306;DHT22;5198;52.382;9.020;2023-04-09T07:09:15;5.70;99.90
10306;DHT22;5198;52.382;9.020;2023-04-09T07:13:18;5.80;99.90
10306;DHT22;5198;52.382;9.020;2023-04-09T07:17:21;5.80;99.90
10306;DHT22;5198;52.382;9.020;2023-04-09T07:21:25;5.90;99.90
10306;DHT22;5198;52.382;9.020;2023-04-09T07:25:30;6.00;99.90
10306;DHT22;5198;52.382;9.020;2023-04-09T07:29:33;6.00;99.90
10306;DHT22;5198;52.382;9.020;2023-04-09T07:33:36;6.10;99.90
10306;DHT22;5198;52.382;9.020;2023-04-09T07:37:39;6.20;99.90
10306;DHT22;5198;52.382;9.020;2023-04-09T07:41:43;6.30;99.90
10306;DHT22;5198;52.382;9.020;2023-04-09T07:49:49;6.40;99.90
10306;DHT22;5198;52.382;9.020;2023-04-09T07:53:52;6.50;99.90
10306;DHT22;5198;52.382;9.020;2023-04-09T07:57:56;6.50;99.90
10306;DHT22;5198;52.382;9.020;2023-04-09T08:02:00;6.60;99.90
10306;DHT22;5198;52.382;9.020;2023-04-09T08:06:03;6.70;99.90
10306;DHT22;5198;52.382;9.020;2023-04-09T08:10:06;6.70;99.90
10306;DHT22;5198;52.382;9.020;2023-04-09T08:14:16;6.80;99.90
10306;DHT22;5198;52.382;9.020;2023-04-09T08:18:19;6.90;99.90
10306;DHT22;5198;52.382;9.020;2023-04-09T08:22:22;7.00;99.90
10306;DHT22;5198;52.382;9.020;2023-04-09T08:26:25;7.10;99.90
10306;DHT22;5198;52.382;9.020;2023-04-09T08:30:29;7.10;99.90
10306;DHT22;5198;52.382;9.020;2023-04-09T08:34:34;7.20;99.90
10306;DHT22;5198;52.382;9.020;2023-04-09T08:38:38;7.30;99.90
10306;DHT22;5198;52.382;9.020;2023-04-09T08:42:42;7.30;99.90
10306;DHT22;5198;52.382;9.020;2023-04-09T08:46:46;7.40;99.90
10306;DHT22;5198;52.382;9.020;2023-04-09T08:50:49;7.50;99.90
10306;DHT22;5198;52.382;9.020;2023-04-09T08:54:52;7.60;99.90
10306;DHT22;5198;52.382;9.020;2023-04-09T08:58:55;7.70;99.90
10306;DHT22;5198;52.382;9.020;2023-04-09T09:03:02;7.80;99.90
10306;DHT22;5198;52.382;9.020;2023-04-09T09:07:06;7.90;99.90
10306;DHT22;5198;52.382;9.020;2023-04-09T09:11:09;8.10;99.90
10306;DHT22;5198;52.382;9.020;2023-04-09T09:15:23;8.20;99.90
10306;DHT22;5198;52.382;9.020;2023-04-09T09:19:29;8.40;99.90
10306;DHT22;5198;52.382;9.020;2023-04-09T09:23:33;8.60;99.90
10306;DHT22;5198;52.382;9.020;2023-04-09T09:27:37;8.90;99.90
10306;DHT22;5198;52.382;9.020;2023-04-09T09:31:47;9.40;99.90
10306;DHT22;5198;52.382;9.020;2023-04-09T09:35:52;9.50;99.90
10306;DHT22;5198;52.382;9.020;2023-04-09T09:39:57;9.90;99.90
10306;DHT22;5198;52.382;9.020;2023-04-09T09:44:00;10.40;99.90
10306;DHT22;5198;52.382;9.020;2023-04-09T09:48:05;10.70;99.90
10306;DHT22;5198;52.382;9.020;2023-04-09T09:52:09;11.10;99.90
10306;DHT22;5198;52.382;9.020;2023-04-09T09:56:13;11.50;99.90
10306;DHT22;5198;52.382;9.020;2023-04-09T10:00:17;11.90;99.90
10306;DHT22;5198;52.382;9.020;2023-04-09T10:04:25;12.30;99.90
10306;DHT22;5198;52.382;9.020;2023-04-09T10:08:31;12.70;99.90
10306;DHT22;5198;52.382;9.020;2023-04-09T10:12:35;13.00;99.90
10306;DHT22;5198;52.382;9.020;2023-04-09T10:16:38;13.30;99.90
10306;DHT22;5198;52.382;9.020;2023-04-09T10:20:42;13.60;99.90
10306;DHT22;5198;52.382;9.020;2023-04-09T10:24:50;13.90;99.90
10306;DHT22;5198;52.382;9.020;2023-04-09T10:29:02;14.20;99.90
10306;DHT22;5198;52.382;9.020;2023-04-09T10:33:11;14.40;99.90
10306;DHT22;5198;52.382;9.020;2023-04-09T10:37:15;14.70;99.90
10306;DHT22;5198;52.382;9.020;2023-04-09T10:41:22;15.00;99.90
10306;DHT22;5198;52.382;9.020;2023-04-09T10:45:26;15.30;99.90
10306;DHT22;5198;52.382;9.020;2023-04-09T10:49:40;15.60;99.90
10306;DHT22;5198;52.382;9.020;2023-04-09T10:53:43;15.90;99.90
10306;DHT22;5198;52.382;9.020;2023-04-09T11:01:52;16.40;99.90
10306;DHT22;5198;52.382;9.020;2023-04-09T11:05:59;16.70;99.90
10306;DHT22;5198;52.382;9.020;2023-04-09T11:10:02;17.10;99.90
10306;DHT22;5198;52.382;9.020;2023-04-09T11:14:05;17.20;99.90
10306;DHT22;5198;52.382;9.020;2023-04-09T11:18:09;17.40;99.90
10306;DHT22;5198;52.382;9.020;2023-04-09T11:22:15;17.60;99.90
10306;DHT22;5198;52.382;9.020;2023-04-09T11:26:21;17.80;99.90
10306;DHT22;5198;52.382;9.020;2023-04-09T11:30:24;18.00;99.90
10306;DHT22;5198;52.382;9.020;2023-04-09T11:34:29;18.20;99.90
10306;DHT22;5198;52.382;9.020;2023-04-09T11:38:31;18.40;99.90
10306;DHT22;5198;52.382;9.020;2023-04-09T11:42:34;18.50;99.90
10306;DHT22;5198;52.382;9.020;2023-04-09T11:46:38;18.60;99.90
10306;DHT22;5198;52.382;9.020;2023-04-09T11:50:43;18.70;99.90
10306;DHT22;5198;52.382;9.020;2023-04-09T11:54:47;18.90;99.90
10306;DHT22;5198;52.382;9.020;2023-04-09T11:58:50;19.00;99.90
10306;DHT22;5198;52.382;9.020;2023-04-09T12:03:00;19.00;99.90
10306;DHT22;5198;52.382;9.020;2023-04-09T12:07:08;18.80;99.90
10306;DHT22;5198;52.382;9.020;2023-04-09T12:11:11;18.60;99.90
10306;DHT22;5198;52.382;9.020;2023-04-09T12:15:18;18.40;99.90
10306;DHT22;5198;52.382;9.020;2023-04-09T12:19:24;18.30;99.90
10306;DHT22;5198;52.382;9.020;2023-04-09T12:23:29;18.40;99.90
10306;DHT22;5198;52.382;9.020;2023-04-09T12:27:32;18.50;99.90
10306;DHT22;5198;52.382;9.020;2023-04-09T12:31:35;18.50;99.90
10306;DHT22;5198;52.382;9.020;2023-04-09T12:35:38;18.40;99.90
10306;DHT22;5198;52.382;9.020;2023-04-09T12:39:42;18.30;99.90
10306;DHT22;5198;52.382;9.020;2023-04-09T12:43:45;18.20;99.90
10306;DHT22;5198;52.382;9.020;2023-04-09T12:47:49;18.00;99.90
10306;DHT22;5198;52.382;9.020;2023-04-09T12:51:52;17.80;99.90
10306;DHT22;5198;52.382;9.020;2023-04-09T12:55:56;17.60;99.90
10306;DHT22;5198;52.382;9.020;2023-04-09T12:59:59;17.40;99.90
10306;DHT22;5198;52.382;9.020;2023-04-09T13:04:02;17.30;99.90
10306;DHT22;5198;52.382;9.020;2023-04-09T13:08:05;17.20;99.90
10306;DHT22;5198;52.382;9.020;2023-04-09T13:12:09;17.20;99.90
10306;DHT22;5198;52.382;9.020;2023-04-09T13:16:13;17.20;99.90
10306;DHT22;5198;52.382;9.020;2023-04-09T13:20:16;17.10;99.90
10306;DHT22;5198;52.382;9.020;2023-04-09T13:24:19;17.00;99.90
10306;DHT22;5198;52.382;9.020;2023-04-09T13:28:23;16.90;99.90
10306;DHT22;5198;52.382;9.020;2023-04-09T13:32:26;16.80;99.90
10306;DHT22;5198;52.382;9.020;2023-04-09T13:36:29;16.70;99.90
10306;DHT22;5198;52.382;9.020;2023-04-09T13:40:33;16.60;99.90
10306;DHT22;5198;52.382;9.020;2023-04-09T13:44:37;16.50;99.90
10306;DHT22;5198;52.382;9.020;2023-04-09T13:48:43;16.30;99.90
10306;DHT22;5198;52.382;9.020;2023-04-09T13:52:45;16.20;99.90
10306;DHT22;5198;52.382;9.020;2023-04-09T13:56:48;16.00;99.90
10306;DHT22;5198;52.382;9.020;2023-04-09T14:00:53;15.90;99.90
10306;DHT22;5198;52.382;9.020;2023-04-09T14:04:56;15.80;99.90
10306;DHT22;5198;52.382;9.020;2023-04-09T14:08:59;15.60;99.90
10306;DHT22;5198;52.382;9.020;2023-04-09T14:13:02;15.50;99.90
10306;DHT22;5198;52.382;9.020;2023-04-09T14:17:09;15.40;99.90
10306;DHT22;5198;52.382;9.020;2023-04-09T14:21:11;15.20;99.90
10306;DHT22;5198;52.382;9.020;2023-04-09T14:25:15;15.10;99.90
10306;DHT22;5198;52.382;9.020;2023-04-09T14:29:17;15.00;99.90
10306;DHT22;5198;52.382;9.020;2023-04-09T14:33:22;15.00;99.90
10306;DHT22;5198;52.382;9.020;2023-04-09T14:37:25;14.90;99.90
10306;DHT22;5198;52.382;9.020;2023-04-09T14:41:28;15.00;99.90
10306;DHT22;5198;52.382;9.020;2023-04-09T14:45:32;15.00;99.90
10306;DHT22;5198;52.382;9.020;2023-04-09T14:49:36;15.00;99.90
10306;DHT22;5198;52.382;9.020;2023-04-09T14:53:39;15.00;99.90
10306;DHT22;5198;52.382;9.020;2023-04-09T14:57:42;14.90;99.90
10306;DHT22;5198;52.382;9.020;2023-04-09T15:01:45;14.90;99.90
10306;DHT22;5198;52.382;9.020;2023-04-09T15:05:49;14.90;99.90
10306;DHT22;5198;52.382;9.020;2023-04-09T15:09:52;15.00;99.90
10306;DHT22;5198;52.382;9.020;2023-04-09T15:13:55;14.90;99.90
10306;DHT22;5198;52.382;9.020;2023-04-09T15:17:58;15.00;99.90
10306;DHT22;5198;52.382;9.020;2023-04-09T15:22:07;15.00;99.90
10306;DHT22;5198;52.382;9.020;2023-04-09T15:26:10;15.00;99.90
10306;DHT22;5198;52.382;9.020;2023-04-09T15:30:13;15.00;99.90
10306;DHT22;5198;52.382;9.020;2023-04-09T15:34:16;15.00;99.90
10306;DHT22;5198;52.382;9.020;2023-04-09T15:38:20;15.10;99.90
10306;DHT22;5198;52.382;9.020;2023-04-09T15:42:25;15.70;99.90
10306;DHT22;5198;52.382;9.020;2023-04-09T15:46:28;15.70;99.90
10306;DHT22;5198;52.382;9.020;2023-04-09T15:50:31;16.50;99.90
10306;DHT22;5198;52.382;9.020;2023-04-09T15:54:35;16.90;99.90
10306;DHT22;5198;52.382;9.020;2023-04-09T15:58:38;17.10;99.90
10306;DHT22;5198;52.382;9.020;2023-04-09T16:02:41;17.30;99.90
10306;DHT22;5198;52.382;9.020;2023-04-09T16:06:43;17.40;99.90
10306;DHT22;5198;52.382;9.020;2023-04-09T16:10:48;17.50;99.90
10306;DHT22;5198;52.382;9.020;2023-04-09T16:14:51;17.70;99.90
10306;DHT22;5198;52.382;9.020;2023-04-09T16:18:54;17.70;99.90
10306;DHT22;5198;52.382;9.020;2023-04-09T16:22:57;17.70;99.90
10306;DHT22;5198;52.382;9.020;2023-04-09T16:27:01;17.60;99.90
10306;DHT22;5198;52.382;9.020;2023-04-09T16:31:04;17.30;99.90
10306;DHT22;5198;52.382;9.020;2023-04-09T16:35:07;17.10;99.90
10306;DHT22;5198;52.382;9.020;2023-04-09T16:39:10;16.90;99.90
10306;DHT22;5198;52.382;9.020;2023-04-09T16:43:14;16.70;99.90
10306;DHT22;5198;52.382;9.020;2023-04-09T16:47:17;16.50;99.90
10306;DHT22;5198;52.382;9.020;2023-04-09T16:51:20;16.40;99.90
10306;DHT22;5198;52.382;9.020;2023-04-09T16:55:23;16.20;99.90
10306;DHT22;5198;52.382;9.020;2023-04-09T16:59:27;16.10;99.90
10306;DHT22;5198;52.382;9.020;2023-04-09T17:03:30;15.90;99.90
10306;DHT22;5198;52.382;9.020;2023-04-09T17:07:33;15.70;99.90
10306;DHT22;5198;52.382;9.020;2023-04-09T17:11:35;15.50;99.90
10306;DHT22;5198;52.382;9.020;2023-04-09T17:15:40;15.30;99.90
10306;DHT22;5198;52.382;9.020;2023-04-09T17:19:43;15.10;99.90
10306;DHT22;5198;52.382;9.020;2023-04-09T17:23:46;14.90;99.90
10306;DHT22;5198;52.382;9.020;2023-04-09T17:27:49;14.80;99.90
10306;DHT22;5198;52.382;9.020;2023-04-09T17:31:53;14.60;99.90
10306;DHT22;5198;52.382;9.020;2023-04-09T17:35:56;14.40;99.90
10306;DHT22;5198;52.382;9.020;2023-04-09T17:39:59;14.20;99.90
10306;DHT22;5198;52.382;9.020;2023-04-09T17:44:02;14.10;99.90
10306;DHT22;5198;52.382;9.020;2023-04-09T17:48:06;13.90;99.90
10306;DHT22;5198;52.382;9.020;2023-04-09T17:52:09;13.70;99.90
10306;DHT22;5198;52.382;9.020;2023-04-09T17:56:14;13.50;99.90
10306;DHT22;5198;52.382;9.020;2023-04-09T18:00:17;13.40;99.90
10306;DHT22;5198;52.382;9.020;2023-04-09T18:04:21;13.20;99.90
10306;DHT22;5198;52.382;9.020;2023-04-09T18:08:25;13.00;99.90
10306;DHT22;5198;52.382;9.020;2023-04-09T18:12:28;12.90;99.90
10306;DHT22;5198;52.382;9.020;2023-04-09T18:16:30;12.70;99.90
10306;DHT22;5198;52.382;9.020;2023-04-09T18:20:35;12.60;99.90
10306;DHT22;5198;52.382;9.020;2023-04-09T18:24:37;12.40;99.90
10306;DHT22;5198;52.382;9.020;2023-04-09T18:28:40;12.30;99.90
10306;DHT22;5198;52.382;9.020;2023-04-09T18:32:43;12.10;99.90
10306;DHT22;5198;52.382;9.020;2023-04-09T18:36:50;12.00;99.90
10306;DHT22;5198;52.382;9.020;2023-04-09T18:40:53;11.90;99.90
10306;DHT22;5198;52.382;9.020;2023-04-09T18:44:56;11.80;99.90
10306;DHT22;5198;52.382;9.020;2023-04-09T18:48:59;11.60;99.90
10306;DHT22;5198;52.382;9.020;2023-04-09T18:53:03;11.50;99.90
10306;DHT22;5198;52.382;9.020;2023-04-09T18:57:07;11.40;99.90
10306;DHT22;5198;52.382;9.020;2023-04-09T19:01:10;11.30;99.90
10306;DHT22;5198;52.382;9.020;2023-04-09T19:05:13;11.10;99.90
10306;DHT22;5198;52.382;9.020;2023-04-09T19:09:17;11.10;99.90
10306;DHT22;5198;52.382;9.020;2023-04-09T19:13:20;11.00;99.90
10306;DHT22;5198;52.382;9.020;2023-04-09T19:17:23;10.90;99.90
10306;DHT22;5198;52.382;9.020;2023-04-09T19:21:26;10.80;99.90
10306;DHT22;5198;52.382;9.020;2023-04-09T19:25:30;10.70;99.90
10306;DHT22;5198;52.382;9.020;2023-04-09T19:29:34;10.60;99.90
10306;DHT22;5198;52.382;9.020;2023-04-09T19:33:37;10.50;99.90
10306;DHT22;5198;52.382;9.020;2023-04-09T19:37:40;10.40;99.90
10306;DHT22;5198;52.382;9.020;2023-04-09T19:41:44;10.20;99.90
10306;DHT22;5198;52.382;9.020;2023-04-09T19:45:47;10.10;99.90
10306;DHT22;5198;52.382;9.020;2023-04-09T19:49:50;10.00;99.90
10306;DHT22;5198;52.382;9.020;2023-04-09T19:53:53;9.90;99.90
10306;DHT22;5198;52.382;9.020;2023-04-09T19:57:57;9.80;99.90
10306;DHT22;5198;52.382;9.020;2023-04-09T20:02:00;9.60;99.90
10306;DHT22;5198;52.382;9.020;2023-04-09T20:06:05;9.50;99.90
10306;DHT22;5198;52.382;9.020;2023-04-09T20:10:08;9.30;99.90
10306;DHT22;5198;52.382;9.020;2023-04-09T20:14:12;9.20;99.90
10306;DHT22;5198;52.382;9.020;2023-04-09T20:18:15;9.10;99.90
10306;DHT22;5198;52.382;9.020;2023-04-09T20:22:18;9.00;99.90
10306;DHT22;5198;52.382;9.020;2023-04-09T20:26:21;8.90;99.90
10306;DHT22;5198;52.382;9.020;2023-04-09T20:30:25;8.80;99.90
10306;DHT22;5198;52.382;9.020;2023-04-09T20:34:28;8.70;99.90
10306;DHT22;5198;52.382;9.020;2023-04-09T20:38:31;8.60;99.90
10306;DHT22;5198;52.382;9.020;2023-04-09T20:42:33;8.60;99.90
10306;DHT22;5198;52.382;9.020;2023-04-09T20:46:38;8.50;99.90
10306;DHT22;5198;52.382;9.020;2023-04-09T20:50:41;8.40;99.90
10306;DHT22;5198;52.382;9.020;2023-04-09T20:54:43;8.30;99.90
10306;DHT22;5198;52.382;9.020;2023-04-09T20:58:47;8.30;99.90
10306;DHT22;5198;52.382;9.020;2023-04-09T21:02:51;8.20;99.90
10306;DHT22;5198;52.382;9.020;2023-04-09T21:06:54;8.10;99.90
10306;DHT22;5198;52.382;9.020;2023-04-09T21:10:57;8.10;99.90
10306;DHT22;5198;52.382;9.020;2023-04-09T21:15:00;8.00;99.90
10306;DHT22;5198;52.382;9.020;2023-04-09T21:19:04;7.90;99.90
10306;DHT22;5198;52.382;9.020;2023-04-09T21:23:08;7.80;99.90
10306;DHT22;5198;52.382;9.020;2023-04-09T21:27:11;7.70;99.90
10306;DHT22;5198;52.382;9.020;2023-04-09T21:31:15;7.70;99.90
10306;DHT22;5198;52.382;9.020;2023-04-09T21:35:20;7.60;99.90
10306;DHT22;5198;52.382;9.020;2023-04-09T21:39:22;7.40;99.90
10306;DHT22;5198;52.382;9.020;2023-04-09T21:43:25;7.40;99.90
10306;DHT22;5198;52.382;9.020;2023-04-09T21:47:29;7.30;99.90
10306;DHT22;5198;52.382;9.020;2023-04-09T21:51:34;7.20;99.90
10306;DHT22;5198;52.382;9.020;2023-04-09T21:55:38;7.20;99.90
10306;DHT22;5198;52.382;9.020;2023-04-09T21:59:40;7.10;99.90
10306;DHT22;5198;52.382;9.020;2023-04-09T22:03:43;7.00;99.90
10306;DHT22;5198;52.382;9.020;2023-04-09T22:07:48;6.90;99.90
10306;DHT22;5198;52.382;9.020;2023-04-09T22:11:51;6.80;99.90
10306;DHT22;5198;52.382;9.020;2023-04-09T22:15:54;6.80;99.90
10306;DHT22;5198;52.382;9.020;2023-04-09T22:19:57;6.70;99.90
10306;DHT22;5198;52.382;9.020;2023-04-09T22:24:01;6.60;99.90
10306;DHT22;5198;52.382;9.020;2023-04-09T22:28:04;6.60;99.90
10306;DHT22;5198;52.382;9.020;2023-04-09T22:32:07;6.50;99.90
10306;DHT22;5198;52.382;9.020;2023-04-09T22:36:10;6.50;99.90
10306;DHT22;5198;52.382;9.020;2023-04-09T22:40:15;6.40;99.90
10306;DHT22;5198;52.382;9.020;2023-04-09T22:44:17;6.40;99.90
10306;DHT22;5198;52.382;9.020;2023-04-09T22:48:20;6.30;99.90
10306;DHT22;5198;52.382;9.020;2023-04-09T22:52:24;6.30;99.90
10306;DHT22;5198;52.382;9.020;2023-04-09T22:56:28;6.30;99.90
10306;DHT22;5198;52.382;9.020;2023-04-09T23:00:32;6.20;99.90
10306;DHT22;5198;52.382;9.020;2023-04-09T23:04:35;6.20;99.90
10306;DHT22;5198;52.382;9.020;2023-04-09T23:08:38;6.20;99.90
10306;DHT22;5198;52.382;9.020;2023-04-09T23:12:42;6.10;99.90
10306;DHT22;5198;52.382;9.020;2023-04-09T23:16:45;6.10;99.90
10306;DHT22;5198;52.382;9.020;2023-04-09T23:20:48;6.00;99.90
10306;DHT22;5198;52.382;9.020;2023-04-09T23:24:51;5.90;99.90
10306;DHT22;5198;52.382;9.020;2023-04-09T23:28:55;5.90;99.90
10306;DHT22;5198;52.382;9.020;2023-04-09T23:32:58;5.90;99.90
10306;DHT22;5198;52.382;9.020;2023-04-09T23:37:01;5.80;99.90
10306;DHT22;5198;52.382;9.020;2023-04-09T23:41:04;5.80;99.90
10306;DHT22;5198;52.382;9.020;2023-04-09T23:45:09;5.80;99.90
10306;DHT22;5198;52.382;9.020;2023-04-09T23:49:12;5.70;99.90
10306;DHT22;5198;52.382;9.020;2023-04-09T23:53:16;5.70;99.90
10306;DHT22;5198;52.382;9.020;2023-04-09T23:57:19;5.60;99.90
